Impacts TAF Board INFO
FOR SITUATIONAL AWARENESS. NOT TO BE USED FOR FLIGHT PLANNING PURPOSES.
IDs:

KLAS - Las Vegas/McCarran I, NV, US

Issued at 2320 UTC 12 Dec 2017
Updated at 2332 UTC 12 Dec 2017
Potential Impact None Slight Moderate High
Time2256Z 13/00Z 13/01Z 13/02Z 13/03Z 13/04Z 13/05Z 13/06Z 13/07Z 13/08Z 13/09Z 13/10Z 13/11Z 13/12Z>>
Type OBS PRVL PRVL PRVL PRVL PRVL PRVL PRVL PRVL PRVL PRVL PRVL PRVL PRVL
VIS 10 >6 >6 >6 >6 >6 >6 >6 >6 >6 >6 >6 >6 >6
CIG -- -- -- -- -- -- -- -- -- -- -- -- -- --
Cover FEW SKC SKC SKC SKC SKC SKC SKC SKC SKC SKC SKC SKC SKC
FltCat VFR VFR VFR VFR VFR VFR VFR VFR VFR VFR VFR VFR VFR VFR
WX -- -- -- -- -- -- -- -- -- -- -- -- -- --
WDir VRB VRB 220 220 220 220 220 220 220 220 220 220 220 220
WSpd 0 5 6 6 6 6 6 6 6 6 6 6 6 6
WGst -- -- -- -- -- -- -- -- -- -- -- -- -- --

Raw TAF
KLAS 122320Z 1300/1406 VRB05KT P6SM SKC
  FM130100 22006KT P6SM SKC
  FM131600 VRB05KT P6SM SKC
  FM140200 23006KT P6SM FEW250


Raw METAR
KLAS 122256Z 00000KT 10SM FEW250 20/M17 A3020 RMK AO2 SLP221 T02001172
KLAS 122156Z 00000KT 10SM FEW250 19/M18 A3022 RMK AO2 SLP227 T01941178
KLAS 122056Z 00000KT 10SM CLR 19/M18 A3025 RMK AO2 SLP237 T01891178 58041

METAR Board
Radar Display
Forecast Discussion

FOR SITUATIONAL AWARENESS. NOT TO BE USED FOR FLIGHT PLANNING PURPOSES.